Pisek, ND (58273)

1:22 PM CST on January 17, 2017 (GMT -0600)
Forest River Farms | | Change Station

Elev 876 ft 48.17 °N, 97.47 °W | Updated 19 minutes ago

Partly Cloudy
Partly Cloudy
22.7 °F
Feels Like 23 °F
N
2.0
Wind Variable Wind from ESE

Today
High -- | Low -- °F
--% Chance of Precip.
Yesterday
High -- | Low -- °F
Precip. -- in
Pressure 29.83 in
Visibility 10.0 miles
Clouds Clear
Windchill 23 °F
Dew Point 17 °F
Humidity 79%
Rainfall 0.00 in
Snow Depth Not available.
8:15 AM 5:07 PM
Waning Gibbous, 70% visible
METAR KGAF 171915Z AUTO 17013KT 10SM CLR M08/M10 A2983 RMK AO2
Pressure 29.83 in
Visibility 10.0 miles
Clouds Clear
Windchill 23 °F
Dew Point 17 °F
Humidity 79%
Rainfall 0.00 in
Snow Depth Not available.
8:15 AM 5:07 PM
Waning Gibbous, 70% visible
METAR KGAF 171915Z AUTO 17013KT 10SM CLR M08/M10 A2983 RMK AO2

Get Your Daily Forecast Email!

Thanks for signing up!

Be on the lookout for a verification email in your inbox.

You'll start receiving the daily forecast at 8 AM.

×

10-Day Weather Forecast

Almanac

Astronomy

Jan. 17, 2017 Rise Set
Actual Time
Civil Twilight
Nautical Twilight
Astronomical Twilight
Moon
Length of Visible Light
Length of Day
Tomorrow will be .
, % of the Moon is Illuminated

Today's Extremes

State Highs State Lows

Community

WunderPhotos

Upload Photos

1,962,540 photos uploaded!

WunderBlog® & News

Nearby

Air Quality

  Air Quality AQ Index Pollutant
Not available.

Snow Depth

Station Depth Elevation

Earthquake Activity

City Distance Mag. Time & Date
Minimum magnitude displayed is 2.5.

Coastal Water Temperatures

Place Temperature

Stations

Nearby Weather Stations

Station Location Temp. Windchill Dew Point Humidity Wind Precip. Elev Updated Type
                   

Watches & Warnings

There are currently no watches in effect.